Time;durP1;ratioP1;P1;durP2;ratioP2;P2;SDS_P1;SDS_P2;PMS_P1;PMS_P2;Temp;Humidity;BMP_temperature;BMP_pressure;BME280_temperature;BME280_humidity;BME280_pressure;Samples;Min_cycle;Max_cycle;Signal;HPM_P1;HPM_P2
2024/01/29 00:01:04;;;;;;;84.22;51.35;;;21.90;47.80;;;;;;5071451;28;20469;-64
2024/01/29 00:03:30;;;;;;;80.47;49.50;;;21.90;48.30;;;;;;5079247;28;20032;-64
2024/01/29 00:05:56;;;;;;;81.25;50.08;;;21.90;47.80;;;;;;5081147;28;20383;-64
2024/01/29 00:08:21;;;;;;;78.38;48.92;;;21.80;47.70;;;;;;5079206;28;20912;-64
2024/01/29 00:10:47;;;;;;;74.85;48.00;;;21.80;47.70;;;;;;5079141;28;20040;-65
2024/01/29 00:13:12;;;;;;;74.18;47.53;;;21.80;47.80;;;;;;5082224;28;20433;-63
2024/01/29 00:15:38;;;;;;;73.70;45.08;;;21.80;47.70;;;;;;5080647;28;20195;-64
2024/01/29 00:18:04;;;;;;;72.20;44.67;;;21.80;47.70;;;;;;5082144;28;20024;-63
2024/01/29 00:20:30;;;;;;;71.07;45.03;;;21.80;47.80;;;;;;5078850;28;20020;-64
2024/01/29 00:22:56;;;;;;;70.75;43.63;;;21.80;47.80;;;;;;5079423;28;20028;-63
2024/01/29 00:25:22;;;;;;;65.85;42.95;;;21.70;47.70;;;;;;5078185;28;20032;-64
2024/01/29 00:27:47;;;;;;;68.38;42.50;;;21.70;47.70;;;;;;5080436;28;20030;-64
2024/01/29 00:30:13;;;;;;;67.72;41.63;;;21.70;48.30;;;;;;5080321;28;20046;-63
2024/01/29 00:32:40;;;;;;;63.80;40.45;;;21.70;47.70;;;;;;5083006;28;20024;-63
2024/01/29 00:35:07;;;;;;;65.00;41.28;;;21.70;47.80;;;;;;5081187;28;20043;-63
2024/01/29 00:37:33;;;;;;;65.32;40.50;;;21.60;47.70;;;;;;5079221;28;20031;-63
2024/01/29 00:39:58;;;;;;;61.83;38.78;;;21.70;47.80;;;;;;5081365;28;20039;-64
2024/01/29 00:42:24;;;;;;;60.55;38.63;;;21.70;47.80;;;;;;5077786;28;20499;-64
2024/01/29 00:44:50;;;;;;;62.30;39.20;;;21.60;47.70;;;;;;5081263;28;20111;-64
2024/01/29 00:47:15;;;;;;;61.90;38.38;;;21.60;47.70;;;;;;5080629;28;20024;-65
2024/01/29 00:49:41;;;;;;;60.03;37.90;;;21.60;47.80;;;;;;5078748;28;20437;-63
2024/01/29 00:52:07;;;;;;;55.78;37.05;;;21.60;47.80;;;;;;5078173;28;20085;-64
2024/01/29 00:54:32;;;;;;;58.22;35.60;;;21.50;47.70;;;;;;5078383;28;20024;-63
2024/01/29 00:56:58;;;;;;;57.20;35.95;;;21.50;47.70;;;;;;5077555;28;20036;-64
2024/01/29 00:59:24;;;;;;;51.95;35.20;;;21.50;47.70;;;;;;5079257;28;20024;-64
2024/01/29 01:01:49;;;;;;;56.10;35.15;;;21.50;47.70;;;;;;5081376;28;20033;-63
2024/01/29 01:04:15;;;;;;;52.45;33.28;;;21.50;47.70;;;;;;5078954;28;20028;-63
2024/01/29 01:06:41;;;;;;;50.47;32.28;;;21.50;47.70;;;;;;5079503;28;20029;-63
2024/01/29 01:09:09;;;;;;;53.08;33.60;;;21.50;47.70;;;;;;5078606;28;20068;-65
2024/01/29 01:11:35;;;;;;;53.40;33.50;;;21.50;47.70;;;;;;5078250;28;20111;-64
2024/01/29 01:14:00;;;;;;;51.90;32.00;;;21.50;47.70;;;;;;5081190;28;20024;-63
2024/01/29 01:16:26;;;;;;;47.80;30.63;;;21.50;47.70;;;;;;5078726;28;20438;-63
2024/01/29 01:18:52;;;;;;;47.70;30.92;;;21.50;47.70;;;;;;5077322;28;20099;-63
2024/01/29 01:21:17;;;;;;;49.38;31.17;;;21.40;47.70;;;;;;5076701;28;20486;-63
2024/01/29 01:23:43;;;;;;;46.45;29.23;;;21.50;47.70;;;;;;5078348;28;20028;-63
2024/01/29 01:26:09;;;;;;;46.63;29.88;;;21.40;47.70;;;;;;5069039;28;20036;-64
2024/01/29 01:28:34;;;;;;;43.35;28.23;;;21.40;47.70;;;;;;5060886;28;20517;-65
2024/01/29 01:31:00;;;;;;;44.17;27.67;;;21.40;47.70;;;;;;5080211;28;20171;-63
2024/01/29 01:33:26;;;;;;;43.50;27.38;;;21.40;47.70;;;;;;5081631;28;20046;-63
2024/01/29 01:35:51;;;;;;;41.22;26.90;;;21.40;47.70;;;;;;5081183;28;20103;-63
2024/01/29 01:38:17;;;;;;;42.83;27.20;;;21.30;47.70;;;;;;5078194;28;20078;-64
2024/01/29 01:40:43;;;;;;;40.67;26.00;;;21.30;47.60;;;;;;5076436;28;20184;-63
2024/01/29 01:43:20;;;;;;;39.53;25.85;;;21.30;47.70;;;;;;5078948;28;20095;-65
2024/01/29 01:46:04;;;;;;;41.33;25.63;;;21.30;47.60;;;;;;5061485;28;20116;-64
2024/01/29 01:48:37;;;;;;;39.33;24.50;;;21.30;47.60;;;;;;5078724;28;20067;-63
2024/01/29 01:51:04;;;;;;;38.40;24.30;;;21.30;47.70;;;;;;5079584;28;20541;-64
2024/01/29 01:53:32;;;;;;;37.80;23.55;;;21.30;47.70;;;;;;5078412;28;20036;-63
2024/01/29 01:56:01;;;;;;;37.45;24.02;;;21.30;47.70;;;;;;5078572;28;20113;-68
2024/01/29 01:58:27;;;;;;;37.00;24.27;;;21.30;47.60;;;;;;5080025;28;20028;-68
2024/01/29 02:00:55;;;;;;;36.45;23.15;;;21.20;47.60;;;;;;5079523;28;20051;-69
2024/01/29 02:03:21;;;;;;;34.25;22.00;;;21.20;47.60;;;;;;5079295;28;20420;-68
2024/01/29 02:05:47;;;;;;;34.88;21.92;;;21.20;47.60;;;;;;5078824;28;20024;-63
2024/01/29 02:08:14;;;;;;;33.10;23.27;;;21.20;47.70;;;;;;5077714;28;20099;-62
2024/01/29 02:10:39;;;;;;;32.55;20.77;;;21.20;47.60;;;;;;5077945;28;20060;-61
2024/01/29 02:13:15;;;;;;;31.98;21.48;;;21.20;47.60;;;;;;5077891;28;20857;-62
2024/01/29 02:15:44;;;;;;;33.67;21.13;;;21.20;47.60;;;;;;5078620;28;20039;-61
2024/01/29 02:18:09;;;;;;;30.38;20.45;;;21.20;47.60;;;;;;5077395;28;20373;-61
2024/01/29 02:20:35;;;;;;;33.90;21.08;;;21.20;47.70;;;;;;5068348;28;20032;-61
2024/01/29 02:23:01;;;;;;;30.98;20.25;;;21.20;47.60;;;;;;5066773;28;20023;-60
2024/01/29 02:25:27;;;;;;;30.95;20.35;;;21.10;47.60;;;;;;5077441;28;20033;-61
2024/01/29 02:27:53;;;;;;;27.45;19.02;;;21.10;47.60;;;;;;5078350;28;20365;-64
2024/01/29 02:30:18;;;;;;;31.85;19.70;;;21.10;47.60;;;;;;5079256;28;20426;-62
2024/01/29 02:32:44;;;;;;;30.83;19.10;;;21.10;47.60;;;;;;5071936;28;20033;-62
2024/01/29 02:35:10;;;;;;;29.20;18.73;;;21.10;47.60;;;;;;5072610;28;20036;-62
2024/01/29 02:37:35;;;;;;;28.05;17.77;;;21.10;47.60;;;;;;5079070;28;20028;-62
2024/01/29 02:40:01;;;;;;;28.83;18.30;;;21.10;47.60;;;;;;5080801;28;20024;-63
2024/01/29 02:42:27;;;;;;;26.73;17.00;;;21.10;47.60;;;;;;5079708;28;20031;-62
2024/01/29 02:44:52;;;;;;;26.90;17.25;;;21.10;47.60;;;;;;5081877;28;20039;-61
2024/01/29 02:47:18;;;;;;;26.20;17.40;;;21.00;47.60;;;;;;5081429;28;20058;-69
2024/01/29 02:49:44;;;;;;;24.73;16.70;;;21.00;47.60;;;;;;5083200;28;20020;-69
2024/01/29 02:52:10;;;;;;;24.92;16.00;;;21.00;47.60;;;;;;5080498;28;20057;-70
2024/01/29 02:54:36;;;;;;;25.63;17.00;;;21.00;47.60;;;;;;5080991;28;20074;-68
2024/01/29 02:57:02;;;;;;;24.88;15.98;;;21.00;47.60;;;;;;5080588;28;20123;-68
2024/01/29 02:59:28;;;;;;;23.23;15.23;;;21.00;47.60;;;;;;5063789;28;20111;-69
2024/01/29 03:01:55;;;;;;;25.77;15.50;;;21.00;47.60;;;;;;5082152;28;20564;-69
2024/01/29 03:04:21;;;;;;;23.50;15.90;;;21.00;47.60;;;;;;5083472;28;20114;-70
2024/01/29 03:06:47;;;;;;;25.27;15.55;;;21.00;47.60;;;;;;5083503;28;20024;-66
2024/01/29 03:09:13;;;;;;;21.92;14.88;;;21.00;47.60;;;;;;5080453;28;20093;-66
2024/01/29 03:11:40;;;;;;;23.08;14.50;;;20.90;47.60;;;;;;5081121;28;20028;-66
2024/01/29 03:14:05;;;;;;;22.77;14.80;;;20.90;47.70;;;;;;5080114;28;20086;-66
2024/01/29 03:16:31;;;;;;;21.60;14.32;;;20.90;48.10;;;;;;5082541;28;20324;-68
2024/01/29 03:18:56;;;;;;;21.05;13.82;;;21.00;47.60;;;;;;5081946;28;20020;-67
2024/01/29 03:21:22;;;;;;;21.08;13.93;;;20.90;47.60;;;;;;5082439;28;20496;-67
2024/01/29 03:23:48;;;;;;;20.27;13.02;;;20.90;47.60;;;;;;5081016;28;20028;-67
2024/01/29 03:26:13;;;;;;;22.08;14.02;;;20.90;47.60;;;;;;5080707;28;20518;-67
2024/01/29 03:28:40;;;;;;;18.90;12.15;;;20.90;47.60;;;;;;5080317;28;20058;-67
2024/01/29 03:31:06;;;;;;;21.52;13.75;;;20.90;47.60;;;;;;5080089;28;20028;-67
2024/01/29 03:33:31;;;;;;;19.98;12.93;;;20.90;47.60;;;;;;5072269;28;20036;-67
2024/01/29 03:35:57;;;;;;;18.30;11.93;;;20.90;47.60;;;;;;5070492;28;20028;-67
2024/01/29 03:38:23;;;;;;;20.45;12.88;;;20.90;47.60;;;;;;5081003;28;20051;-67
2024/01/29 03:40:49;;;;;;;18.73;11.88;;;20.90;47.60;;;;;;5081989;28;20024;-67
2024/01/29 03:43:14;;;;;;;18.48;12.55;;;20.80;47.60;;;;;;5082116;28;20052;-67
2024/01/29 03:45:40;;;;;;;17.02;11.98;;;20.80;47.60;;;;;;5080392;28;20099;-68
2024/01/29 03:48:06;;;;;;;19.65;11.60;;;20.80;47.60;;;;;;5081073;28;20109;-67
2024/01/29 03:50:31;;;;;;;15.52;10.57;;;20.80;47.60;;;;;;5078389;28;20103;-67
2024/01/29 03:52:57;;;;;;;18.80;11.82;;;20.80;47.60;;;;;;5081517;28;20104;-67
2024/01/29 03:55:23;;;;;;;17.27;10.73;;;20.80;47.60;;;;;;5079917;28;20042;-68
2024/01/29 03:57:48;;;;;;;16.35;10.95;;;20.80;47.50;;;;;;5080340;28;20086;-62
2024/01/29 04:00:18;;;;;;;17.55;11.60;;;20.70;47.50;;;;;;5094357;28;20056;-62
2024/01/29 04:02:46;;;;;;;16.70;10.90;;;20.80;47.60;;;;;;5076866;28;20487;-62
2024/01/29 04:05:12;;;;;;;17.20;10.98;;;20.80;48.10;;;;;;5082196;28;20126;-62
2024/01/29 04:07:39;;;;;;;16.58;10.70;;;20.70;48.10;;;;;;5081490;28;20406;-62
2024/01/29 04:10:05;;;;;;;16.17;10.50;;;20.80;48.10;;;;;;5069707;28;20467;-62
2024/01/29 04:12:31;;;;;;;16.25;9.90;;;20.80;47.60;;;;;;5080463;28;20054;-62
2024/01/29 04:14:56;;;;;;;14.45;10.02;;;20.80;47.60;;;;;;5083372;28;20023;-63
2024/01/29 04:17:22;;;;;;;15.40;9.88;;;20.70;47.60;;;;;;5062711;28;20032;-70
2024/01/29 04:19:47;;;;;;;14.73;9.55;;;20.70;47.60;;;;;;5080536;28;20028;-71
2024/01/29 04:22:13;;;;;;;13.68;9.35;;;20.70;47.60;;;;;;5061231;28;20016;-70
2024/01/29 04:24:39;;;;;;;14.23;9.20;;;20.70;47.60;;;;;;5077803;28;20124;-71
2024/01/29 04:27:04;;;;;;;13.95;9.43;;;20.70;47.60;;;;;;5081516;28;20036;-67
2024/01/29 04:29:30;;;;;;;13.60;8.93;;;20.70;47.90;;;;;;5060510;28;20654;-67
2024/01/29 04:31:55;;;;;;;13.98;9.43;;;20.70;47.60;;;;;;5080365;28;20021;-67
2024/01/29 04:34:21;;;;;;;12.65;8.63;;;20.70;47.60;;;;;;5080104;28;20052;-67
2024/01/29 04:36:47;;;;;;;13.73;9.25;;;20.70;47.60;;;;;;5080941;28;20384;-66
2024/01/29 04:39:12;;;;;;;13.57;9.18;;;20.70;47.60;;;;;;5078852;28;20028;-66
2024/01/29 04:41:38;;;;;;;12.40;8.27;;;20.70;47.60;;;;;;5080774;28;20163;-66
2024/01/29 04:44:04;;;;;;;11.73;8.35;;;20.70;47.60;;;;;;5079977;28;20028;-67
2024/01/29 04:46:30;;;;;;;13.43;8.48;;;20.70;47.60;;;;;;5080016;28;20622;-66
2024/01/29 04:48:56;;;;;;;11.32;7.63;;;20.60;47.60;;;;;;5079943;28;20394;-67
2024/01/29 04:51:22;;;;;;;12.57;8.60;;;20.70;47.70;;;;;;5079641;28;20032;-66
2024/01/29 04:53:47;;;;;;;10.73;7.93;;;20.60;47.60;;;;;;5078297;28;20028;-66
2024/01/29 04:56:13;;;;;;;13.05;8.32;;;20.60;47.70;;;;;;5078710;28;20027;-66
2024/01/29 04:58:39;;;;;;;11.07;7.95;;;20.60;47.60;;;;;;5080095;28;20101;-67
2024/01/29 05:01:04;;;;;;;10.38;7.32;;;20.60;47.60;;;;;;5079316;28;20032;-67
2024/01/29 05:03:30;;;;;;;10.70;7.70;;;20.60;47.60;;;;;;5078268;28;20034;-66
2024/01/29 05:05:56;;;;;;;11.18;7.38;;;20.60;47.70;;;;;;5077697;28;20487;-66
2024/01/29 05:08:22;;;;;;;9.60;6.95;;;20.60;47.60;;;;;;5079126;28;20359;-67
2024/01/29 05:10:48;;;;;;;11.35;7.25;;;20.60;47.70;;;;;;5080102;28;20016;-67
2024/01/29 05:13:15;;;;;;;10.93;6.93;;;20.60;47.70;;;;;;5080741;28;20364;-67
2024/01/29 05:15:41;;;;;;;10.32;7.38;;;20.60;47.70;;;;;;5078088;28;20480;-67
2024/01/29 05:18:07;;;;;;;9.48;6.60;;;20.60;47.70;;;;;;5093968;28;20024;-67
2024/01/29 05:20:32;;;;;;;10.63;6.93;;;20.60;47.70;;;;;;5079880;28;20028;-67
2024/01/29 05:22:58;;;;;;;11.18;7.40;;;20.60;47.70;;;;;;5077834;28;20116;-67
2024/01/29 05:25:24;;;;;;;9.55;6.68;;;20.60;48.30;;;;;;5076888;28;20033;-67
2024/01/29 05:27:49;;;;;;;9.63;6.95;;;20.50;47.70;;;;;;5077793;28;20138;-67
2024/01/29 05:30:15;;;;;;;9.32;6.07;;;20.50;47.70;;;;;;5060712;28;20396;-67
2024/01/29 05:32:41;;;;;;;8.60;6.45;;;20.50;47.70;;;;;;5079137;28;20484;-67
2024/01/29 05:35:08;;;;;;;9.98;6.40;;;20.50;47.80;;;;;;5076549;28;20500;-66
2024/01/29 05:37:34;;;;;;;10.73;6.03;;;20.50;47.80;;;;;;5077713;28;20028;-67
2024/01/29 05:40:04;;;;;;;8.98;5.70;;;20.50;47.80;;;;;;5076910;28;20418;-66
2024/01/29 05:42:30;;;;;;;8.43;5.88;;;20.50;47.80;;;;;;5079907;28;20464;-66
2024/01/29 05:44:56;;;;;;;9.50;6.10;;;20.50;47.90;;;;;;5077895;28;20099;-66
2024/01/29 05:47:25;;;;;;;8.13;5.90;;;20.50;47.90;;;;;;5069045;28;20547;-66
2024/01/29 05:49:50;;;;;;;8.05;5.88;;;20.50;48.00;;;;;;5077156;28;20498;-66
2024/01/29 05:52:16;;;;;;;9.23;6.32;;;20.50;47.90;;;;;;5068768;28;20039;-66
2024/01/29 05:54:42;;;;;;;7.72;5.70;;;20.50;48.00;;;;;;5077618;28;20024;-66
2024/01/29 05:57:10;;;;;;;8.18;5.63;;;20.50;48.00;;;;;;5077670;28;20036;-66
2024/01/29 05:59:40;;;;;;;8.27;5.68;;;20.50;48.00;;;;;;5077967;28;20016;-66
2024/01/29 06:02:05;;;;;;;7.93;5.45;;;20.40;48.50;;;;;;5078989;28;20388;-66
2024/01/29 06:04:31;;;;;;;8.20;5.68;;;20.40;48.20;;;;;;5079145;28;20028;-66
2024/01/29 06:06:56;;;;;;;7.97;5.45;;;20.40;48.20;;;;;;5081765;28;20027;-66
2024/01/29 06:09:22;;;;;;;8.13;5.68;;;20.40;48.30;;;;;;5081271;28;20209;-66
2024/01/29 06:11:51;;;;;;;7.78;5.60;;;20.40;48.30;;;;;;5061840;28;20494;-66
2024/01/29 06:14:18;;;;;;;7.85;5.22;;;20.40;48.30;;;;;;5084497;28;20024;-66
2024/01/29 06:16:43;;;;;;;7.65;5.35;;;20.40;48.30;;;;;;5084789;28;20024;-67
2024/01/29 06:19:14;;;;;;;7.80;5.05;;;20.40;48.30;;;;;;5096931;28;20020;-68
2024/01/29 06:21:42;;;;;;;7.20;5.40;;;20.40;48.30;;;;;;5082195;28;20488;-67
2024/01/29 06:24:07;;;;;;;7.93;5.40;;;20.40;48.80;;;;;;5096851;28;20593;-68
2024/01/29 06:26:33;;;;;;;7.45;5.68;;;20.40;48.30;;;;;;5080853;28;20104;-68
2024/01/29 06:28:58;;;;;;;7.00;4.95;;;20.30;48.30;;;;;;5083130;28;20535;-68
2024/01/29 06:31:24;;;;;;;6.47;4.55;;;20.30;48.80;;;;;;5081870;28;20035;-69
2024/01/29 06:33:53;;;;;;;7.75;5.43;;;20.30;48.30;;;;;;5080185;28;20035;-67
2024/01/29 06:36:19;;;;;;;7.53;5.20;;;20.30;48.30;;;;;;5081581;28;20032;-62
2024/01/29 06:38:45;;;;;;;8.65;4.65;;;20.30;48.30;;;;;;5063323;28;20178;-62
2024/01/29 06:41:24;;;;;;;6.80;4.85;;;20.30;48.30;;;;;;5079880;28;20106;-61
2024/01/29 06:43:50;;;;;;;7.35;4.90;;;20.30;48.30;;;;;;5086155;28;20067;-65
2024/01/29 06:46:16;;;;;;;6.75;4.75;;;20.30;48.30;;;;;;5079984;28;20043;-66
2024/01/29 06:48:42;;;;;;;7.22;5.00;;;20.30;48.40;;;;;;5081913;28;20385;-66
2024/01/29 06:51:08;;;;;;;7.30;4.95;;;20.30;48.40;;;;;;5082474;28;20039;-66
2024/01/29 06:53:35;;;;;;;6.47;5.22;;;20.30;48.40;;;;;;5082662;28;20024;-66
2024/01/29 06:56:03;;;;;;;6.80;4.63;;;20.30;48.40;;;;;;5073308;28;20046;-66
2024/01/29 06:58:32;;;;;;;6.05;4.40;;;20.30;48.90;;;;;;5081710;28;20024;-67
2024/01/29 07:01:00;;;;;;;6.20;4.13;;;20.30;48.80;;;;;;5083804;28;20022;-66
2024/01/29 07:03:26;;;;;;;5.25;3.92;;;20.30;49.20;;;;;;5081471;28;20024;-67
2024/01/29 07:05:52;;;;;;;5.90;3.85;;;20.40;48.90;;;;;;5082711;28;20024;-66
2024/01/29 07:08:18;;;;;;;5.55;3.50;;;20.40;48.90;;;;;;5071521;28;20481;-66
2024/01/29 07:10:44;;;;;;;5.75;4.10;;;20.40;48.80;;;;;;5080624;28;20039;-66
2024/01/29 07:13:10;;;;;;;5.93;3.70;;;20.40;49.40;;;;;;5082091;28;20051;-67
2024/01/29 07:15:36;;;;;;;5.38;4.10;;;20.50;48.80;;;;;;5081646;28;20042;-66
2024/01/29 07:18:02;;;;;;;5.20;3.92;;;20.50;48.80;;;;;;5078837;28;20029;-66
2024/01/29 07:20:29;;;;;;;5.80;3.72;;;20.50;48.70;;;;;;5080991;28;20031;-66
2024/01/29 07:22:58;;;;;;;5.22;4.05;;;20.50;48.70;;;;;;5081220;28;20492;-66
2024/01/29 07:25:26;;;;;;;6.00;4.00;;;20.50;49.20;;;;;;5079496;28;20506;-66
2024/01/29 07:27:51;;;;;;;5.82;4.40;;;20.60;48.70;;;;;;5081580;28;20473;-67
2024/01/29 07:30:17;;;;;;;7.15;4.53;;;20.60;48.60;;;;;;5079728;28;20043;-68
2024/01/29 07:32:42;;;;;;;6.35;4.57;;;20.60;48.60;;;;;;5082270;28;20023;-68
2024/01/29 07:35:09;;;;;;;6.88;4.72;;;20.60;48.50;;;;;;5096121;28;20097;-69
2024/01/29 07:37:35;;;;;;;6.75;4.80;;;20.70;48.50;;;;;;5077576;28;20032;-67
2024/01/29 07:40:03;;;;;;;6.40;4.70;;;20.70;48.50;;;;;;5076954;28;20070;-68
2024/01/29 07:42:29;;;;;;;6.03;4.35;;;20.70;48.50;;;;;;5080494;28;20036;-68
2024/01/29 07:44:54;;;;;;;7.28;4.97;;;20.70;48.50;;;;;;5075914;28;20020;-68
2024/01/29 07:47:20;;;;;;;6.95;4.82;;;20.70;48.40;;;;;;5076504;28;20074;-66
2024/01/29 07:49:45;;;;;;;7.10;4.90;;;20.70;48.40;;;;;;5094582;28;20511;-66
2024/01/29 07:52:11;;;;;;;6.47;5.13;;;20.70;48.40;;;;;;5083195;28;20110;-66
2024/01/29 07:54:37;;;;;;;7.28;5.22;;;20.70;48.30;;;;;;5070618;28;20040;-67
2024/01/29 07:57:03;;;;;;;6.47;4.90;;;20.70;48.20;;;;;;5080295;28;20037;-62
2024/01/29 07:59:29;;;;;;;7.90;4.93;;;20.80;48.30;;;;;;5082284;28;20020;-61
2024/01/29 08:01:55;;;;;;;6.35;4.75;;;20.80;48.40;;;;;;5079641;28;20479;-61
2024/01/29 08:04:21;;;;;;;6.38;4.50;;;20.80;48.10;;;;;;5079427;28;20086;-66
2024/01/29 08:06:46;;;;;;;7.45;4.78;;;20.80;48.10;;;;;;5081279;28;20396;-63
2024/01/29 08:09:12;;;;;;;7.95;5.03;;;20.80;48.10;;;;;;5080209;28;20115;-63
2024/01/29 08:11:38;;;;;;;7.65;5.15;;;20.90;48.20;;;;;;5078229;28;20043;-63
2024/01/29 08:14:03;;;;;;;6.97;4.32;;;20.90;48.20;;;;;;5094640;28;20090;-63
2024/01/29 08:16:29;;;;;;;6.07;4.20;;;20.90;48.20;;;;;;5063191;28;20468;-63
2024/01/29 08:18:56;;;;;;;5.15;3.78;;;20.90;48.90;;;;;;5080226;28;20135;-63
2024/01/29 08:21:22;;;;;;;5.78;3.92;;;20.90;48.50;;;;;;5070602;28;20031;-63
2024/01/29 08:23:48;;;;;;;5.80;4.05;;;20.90;48.60;;;;;;5078168;28;20028;-63
2024/01/29 08:26:13;;;;;;;5.80;4.03;;;20.90;48.50;;;;;;5077801;28;20503;-63
2024/01/29 08:28:39;;;;;;;6.45;4.68;;;20.90;48.40;;;;;;5062493;28;20044;-62
2024/01/29 08:31:06;;;;;;;6.13;4.28;;;20.90;48.40;;;;;;5080472;28;21005;-64
2024/01/29 08:33:32;;;;;;;5.97;4.70;;;20.90;48.60;;;;;;5078699;28;20024;-64
2024/01/29 08:35:58;;;;;;;6.20;4.50;;;20.90;48.80;;;;;;5080306;28;20533;-67
2024/01/29 08:38:24;;;;;;;6.72;4.72;;;21.00;48.20;;;;;;5079950;28;20238;-67
2024/01/29 08:40:50;;;;;;;6.43;4.53;;;21.00;48.10;;;;;;5079572;28;20028;-67
2024/01/29 08:43:16;;;;;;;6.97;4.32;;;21.00;48.10;;;;;;5079123;28;20028;-66
2024/01/29 08:45:42;;;;;;;5.25;3.83;;;21.00;48.20;;;;;;5078494;28;20468;-66
2024/01/29 08:48:07;;;;;;;6.22;4.13;;;21.00;48.50;;;;;;5080694;28;20097;-66
2024/01/29 08:50:34;;;;;;;5.70;4.22;;;21.00;48.50;;;;;;5077005;28;20032;-66
2024/01/29 08:53:00;;;;;;;4.75;3.50;;;21.00;48.50;;;;;;5060158;28;20377;-67
2024/01/29 08:55:25;;;;;;;6.43;4.22;;;21.00;48.40;;;;;;5080356;28;20032;-67
2024/01/29 08:57:51;;;;;;;5.28;3.88;;;21.00;48.30;;;;;;5078303;28;20033;-66
2024/01/29 09:00:17;;;;;;;5.32;3.78;;;21.00;48.20;;;;;;5076835;28;20044;-66
2024/01/29 09:02:43;;;;;;;5.70;4.07;;;21.00;48.10;;;;;;5068560;28;20028;-66
2024/01/29 09:05:09;;;;;;;5.43;3.70;;;21.00;48.10;;;;;;5079061;28;20016;-66
2024/01/29 09:07:35;;;;;;;5.63;3.78;;;21.10;48.10;;;;;;5078157;28;20149;-67
2024/01/29 09:10:00;;;;;;;7.15;4.00;;;21.10;48.30;;;;;;5081916;28;20035;-67
2024/01/29 09:12:26;;;;;;;4.95;3.72;;;21.10;48.30;;;;;;5078413;28;20894;-67
2024/01/29 09:14:52;;;;;;;4.80;3.58;;;21.10;48.10;;;;;;5079515;28;20059;-68
2024/01/29 09:17:17;;;;;;;5.95;4.47;;;21.10;48.10;;;;;;5079569;28;20377;-67
2024/01/29 09:19:45;;;;;;;5.63;4.22;;;21.10;48.00;;;;;;5079935;28;20020;-67
2024/01/29 09:22:11;;;;;;;5.28;4.30;;;21.10;47.90;;;;;;5078108;28;20595;-67
2024/01/29 09:24:37;;;;;;;6.15;4.05;;;21.20;47.90;;;;;;5077892;28;20054;-67
2024/01/29 09:27:02;;;;;;;5.43;4.10;;;21.10;47.80;;;;;;5076692;28;20113;-67
2024/01/29 09:29:28;;;;;;;5.30;3.78;;;21.20;47.90;;;;;;5077522;28;20494;-67
2024/01/29 09:31:54;;;;;;;5.68;4.03;;;21.20;47.90;;;;;;5080377;28;20019;-67
2024/01/29 09:34:20;;;;;;;5.55;4.00;;;21.20;47.90;;;;;;5079189;28;20480;-67
2024/01/29 09:36:46;;;;;;;6.25;4.30;;;21.20;47.90;;;;;;5077132;28;20492;-67
2024/01/29 09:39:12;;;;;;;5.97;4.28;;;21.20;47.90;;;;;;5079114;28;20021;-67
2024/01/29 09:41:42;;;;;;;5.57;4.10;;;21.20;47.90;;;;;;5077551;28;20036;-66
2024/01/29 09:44:09;;;;;;;5.45;4.00;;;21.20;47.90;;;;;;5079006;28;20388;-67
2024/01/29 09:46:38;;;;;;;6.35;4.13;;;21.20;48.40;;;;;;5077516;28;20481;-63
2024/01/29 09:49:04;;;;;;;8.65;4.18;;;21.20;47.90;;;;;;5077000;28;20039;-65
2024/01/29 09:51:32;;;;;;;5.03;3.85;;;21.20;47.90;;;;;;5078218;28;20126;-66
2024/01/29 09:53:59;;;;;;;5.15;3.75;;;21.20;48.40;;;;;;5079424;28;20874;-64
2024/01/29 09:56:25;;;;;;;4.53;3.38;;;21.30;48.00;;;;;;5077819;28;20043;-66
2024/01/29 09:58:51;;;;;;;5.00;3.65;;;21.30;48.00;;;;;;5078605;28;20024;-64
2024/01/29 10:01:19;;;;;;;4.85;3.85;;;21.30;47.90;;;;;;5077625;28;20028;-65
2024/01/29 10:03:46;;;;;;;5.22;3.70;;;21.30;47.90;;;;;;5078059;28;20020;-65
2024/01/29 10:06:12;;;;;;;5.28;3.28;;;21.30;48.40;;;;;;5076959;28;20457;-70
2024/01/29 10:08:39;;;;;;;5.22;3.67;;;21.30;47.90;;;;;;5077616;28;20500;-68
2024/01/29 10:11:05;;;;;;;4.15;3.42;;;21.30;47.90;;;;;;5074739;28;20029;-67
2024/01/29 10:13:31;;;;;;;5.75;3.78;;;21.30;48.00;;;;;;5078000;28;20391;-68
2024/01/29 10:15:57;;;;;;;5.18;3.83;;;21.30;47.90;;;;;;5076405;28;20024;-68
2024/01/29 10:18:23;;;;;;;4.88;3.35;;;21.30;48.00;;;;;;5079107;28;20111;-62
2024/01/29 10:21:09;;;;;;;4.60;3.60;;;21.30;48.00;;;;;;5080839;28;20074;-61
2024/01/29 10:23:35;;;;;;;4.97;3.50;;;21.30;47.90;;;;;;5077819;28;20047;-62
2024/01/29 10:26:01;;;;;;;5.15;3.40;;;21.30;48.00;;;;;;5076261;28;20396;-66
2024/01/29 10:28:27;;;;;;;4.22;3.35;;;21.30;48.00;;;;;;5067117;28;20043;-62
2024/01/29 10:30:56;;;;;;;4.60;3.47;;;21.30;48.00;;;;;;5078717;28;20082;-64
2024/01/29 10:33:25;;;;;;;4.78;3.15;;;21.30;48.00;;;;;;5075873;28;20123;-63
2024/01/29 10:35:51;;;;;;;4.22;3.33;;;21.30;48.00;;;;;;5078079;28;20540;-61
2024/01/29 10:38:28;;;;;;;4.45;3.60;;;21.30;48.10;;;;;;5077453;28;20112;-63
2024/01/29 10:40:58;;;;;;;4.32;3.30;;;21.30;48.10;;;;;;5078517;28;20036;-63
2024/01/29 10:43:31;;;;;;;4.75;3.20;;;21.30;48.10;;;;;;5092000;28;20025;-63
2024/01/29 10:45:58;;;;;;;4.50;3.33;;;21.30;48.00;;;;;;5080145;28;20020;-63
2024/01/29 10:48:23;;;;;;;4.38;3.13;;;21.40;48.00;;;;;;5078410;28;20102;-62
2024/01/29 10:50:50;;;;;;;4.07;2.97;;;21.40;48.00;;;;;;5078923;28;20064;-62
2024/01/29 10:53:17;;;;;;;4.20;2.90;;;21.40;48.00;;;;;;5079347;28;20362;-62
2024/01/29 10:55:44;;;;;;;5.60;3.80;;;21.40;48.00;;;;;;5065298;28;20605;-62
2024/01/29 10:58:12;;;;;;;4.07;2.97;;;21.40;48.00;;;;;;5069610;28;20028;-68
2024/01/29 11:00:40;;;;;;;4.53;3.15;;;21.40;48.00;;;;;;5080167;28;20115;-67
2024/01/29 11:03:08;;;;;;;5.10;3.10;;;21.40;48.00;;;;;;5081715;28;20024;-68
2024/01/29 11:05:35;;;;;;;4.05;3.20;;;21.40;48.00;;;;;;5080678;28;20020;-68
2024/01/29 11:08:03;;;;;;;3.58;2.88;;;21.40;48.00;;;;;;5082724;28;20036;-67
2024/01/29 11:10:31;;;;;;;4.25;2.92;;;21.40;48.00;;;;;;5079945;28;20503;-68
2024/01/29 11:12:59;;;;;;;4.15;3.00;;;21.40;48.00;;;;;;5077913;28;20032;-69
2024/01/29 11:15:25;;;;;;;4.30;3.15;;;21.40;48.00;;;;;;5081715;28;20050;-67
2024/01/29 11:17:51;;;;;;;4.10;3.00;;;21.40;47.90;;;;;;5080391;28;20477;-62
2024/01/29 11:20:20;;;;;;;3.08;2.58;;;21.40;47.90;;;;;;5079906;28;20511;-63
2024/01/29 11:22:56;;;;;;;3.95;2.75;;;21.40;48.00;;;;;;5064194;28;20047;-63
2024/01/29 11:25:24;;;;;;;4.80;3.20;;;21.40;48.00;;;;;;5082793;28;20032;-62
2024/01/29 11:27:50;;;;;;;3.67;2.72;;;21.40;48.00;;;;;;5081257;28;20024;-62
2024/01/29 11:30:23;;;;;;;4.47;3.28;;;21.40;48.00;;;;;;5081566;28;20498;-62
2024/01/29 11:32:54;;;;;;;3.75;2.92;;;21.40;48.00;;;;;;5082232;28;20424;-60
2024/01/29 11:35:26;;;;;;;3.58;2.65;;;21.40;48.00;;;;;;5080797;28;20032;-62
2024/01/29 11:37:52;;;;;;;3.72;2.65;;;21.50;48.00;;;;;;5081814;28;20101;-61
2024/01/29 11:40:33;;;;;;;3.97;2.88;;;21.50;48.00;;;;;;5080391;28;20032;-63
2024/01/29 11:43:00;;;;;;;4.03;2.88;;;21.50;48.00;;;;;;5079227;28;20503;-61
2024/01/29 11:45:28;;;;;;;4.03;2.80;;;21.50;48.10;;;;;;5082496;28;20110;-61
2024/01/29 11:47:54;;;;;;;3.60;2.60;;;21.50;48.00;;;;;;5082269;28;20090;-62
2024/01/29 11:50:20;;;;;;;4.03;3.00;;;21.40;47.90;;;;;;5071751;28;20039;-62
2024/01/29 11:52:46;;;;;;;3.30;2.40;;;21.40;47.90;;;;;;5071686;28;20056;-62
2024/01/29 11:55:14;;;;;;;3.92;2.75;;;21.40;47.90;;;;;;5082709;28;20025;-63
2024/01/29 11:57:44;;;;;;;3.30;2.50;;;21.40;47.90;;;;;;5078444;28;20040;-63
2024/01/29 12:00:10;;;;;;;3.90;2.78;;;21.40;47.90;;;;;;5080998;28;20023;-63
2024/01/29 12:02:36;;;;;;;3.92;2.40;;;21.40;47.90;;;;;;5070931;28;20389;-61
2024/01/29 12:05:02;;;;;;;3.67;2.70;;;21.40;47.90;;;;;;5080843;28;20023;-62
2024/01/29 12:07:28;;;;;;;3.67;2.47;;;21.40;47.90;;;;;;5071063;28;20039;-64
2024/01/29 12:09:54;;;;;;;3.60;2.40;;;21.40;47.90;;;;;;5079513;28;20027;-64
2024/01/29 12:12:20;;;;;;;4.00;2.60;;;21.40;47.90;;;;;;5079689;28;20024;-62
2024/01/29 12:14:45;;;;;;;3.75;2.60;;;21.40;47.90;;;;;;5079871;28;20063;-62
2024/01/29 12:17:14;;;;;;;3.83;2.80;;;21.40;47.90;;;;;;5078302;28;20056;-63
2024/01/29 12:19:40;;;;;;;3.03;2.50;;;21.40;48.00;;;;;;5079914;28;20024;-63
2024/01/29 12:22:12;;;;;;;3.70;2.67;;;21.40;48.00;;;;;;5078758;28;20027;-63
2024/01/29 12:24:38;;;;;;;3.60;2.67;;;21.40;48.00;;;;;;5080897;28;20554;-63
2024/01/29 12:27:04;;;;;;;3.63;2.45;;;21.40;48.00;;;;;;5077847;28;20131;-67
2024/01/29 12:29:29;;;;;;;3.03;2.40;;;21.40;48.00;;;;;;5080294;28;20068;-68
2024/01/29 12:31:55;;;;;;;4.60;2.67;;;21.40;48.00;;;;;;5079907;28;20056;-67
2024/01/29 12:34:22;;;;;;;3.70;2.70;;;21.30;48.00;;;;;;5080756;28;20522;-68